sensor_id;sensor_type;location;lat;lon;timestamp;temperature;humidity
62853;DHT22;49205;44.868;38.140;2022-09-09T00:02:18;15.00;78.00
62853;DHT22;49205;44.868;38.140;2022-09-09T00:04:54;15.00;78.20
62853;DHT22;49205;44.868;38.140;2022-09-09T00:07:32;15.00;78.00
62853;DHT22;49205;44.868;38.140;2022-09-09T00:10:07;15.00;78.10
62853;DHT22;49205;44.868;38.140;2022-09-09T00:12:40;15.00;78.30
62853;DHT22;49205;44.868;38.140;2022-09-09T00:15:17;15.00;78.40
62853;DHT22;49205;44.868;38.140;2022-09-09T00:18:03;15.00;78.00
62853;DHT22;49205;44.868;38.140;2022-09-09T00:23:37;14.90;77.70
62853;DHT22;49205;44.868;38.140;2022-09-09T00:28:50;14.90;77.90
62853;DHT22;49205;44.868;38.140;2022-09-09T00:31:25;14.80;78.20
62853;DHT22;49205;44.868;38.140;2022-09-09T00:33:54;14.80;78.40
62853;DHT22;49205;44.868;38.140;2022-09-09T00:36:27;14.80;78.50
62853;DHT22;49205;44.868;38.140;2022-09-09T00:38:59;14.90;78.70
62853;DHT22;49205;44.868;38.140;2022-09-09T00:44:34;14.90;79.00
62853;DHT22;49205;44.868;38.140;2022-09-09T00:50:03;14.80;78.50
62853;DHT22;49205;44.868;38.140;2022-09-09T00:55:28;14.70;78.80
62853;DHT22;49205;44.868;38.140;2022-09-09T00:57:57;14.70;79.00
62853;DHT22;49205;44.868;38.140;2022-09-09T01:00:31;14.70;78.50
62853;DHT22;49205;44.868;38.140;2022-09-09T01:11:57;14.70;79.20
62853;DHT22;49205;44.868;38.140;2022-09-09T01:17:15;14.70;79.40
62853;DHT22;49205;44.868;38.140;2022-09-09T01:27:49;14.70;79.50
62853;DHT22;49205;44.868;38.140;2022-09-09T01:30:19;14.70;79.40
62853;DHT22;49205;44.868;38.140;2022-09-09T01:32:52;14.60;79.50
62853;DHT22;49205;44.868;38.140;2022-09-09T01:35:43;14.60;80.00
62853;DHT22;49205;44.868;38.140;2022-09-09T01:38:10;14.50;80.00
62853;DHT22;49205;44.868;38.140;2022-09-09T01:40:39;14.50;79.80
62853;DHT22;49205;44.868;38.140;2022-09-09T01:43:09;14.50;79.40
62853;DHT22;49205;44.868;38.140;2022-09-09T01:45:39;14.30;78.70
62853;DHT22;49205;44.868;38.140;2022-09-09T01:48:09;14.30;79.40
62853;DHT22;49205;44.868;38.140;2022-09-09T01:50:42;14.20;80.30
62853;DHT22;49205;44.868;38.140;2022-09-09T01:53:14;14.20;80.40
62853;DHT22;49205;44.868;38.140;2022-09-09T01:58:54;14.20;80.90
62853;DHT22;49205;44.868;38.140;2022-09-09T02:01:28;14.30;80.80
62853;DHT22;49205;44.868;38.140;2022-09-09T02:03:58;14.30;80.50
62853;DHT22;49205;44.868;38.140;2022-09-09T02:06:37;14.30;80.40
62853;DHT22;49205;44.868;38.140;2022-09-09T02:09:13;14.30;80.30
62853;DHT22;49205;44.868;38.140;2022-09-09T02:11:44;14.30;80.10
62853;DHT22;49205;44.868;38.140;2022-09-09T02:14:30;14.30;80.00
62853;DHT22;49205;44.868;38.140;2022-09-09T02:17:10;14.30;80.20
62853;DHT22;49205;44.868;38.140;2022-09-09T02:19:45;14.30;80.50
62853;DHT22;49205;44.868;38.140;2022-09-09T02:22:26;14.30;80.60
62853;DHT22;49205;44.868;38.140;2022-09-09T02:24:57;14.30;80.50
62853;DHT22;49205;44.868;38.140;2022-09-09T02:27:29;14.30;80.10
62853;DHT22;49205;44.868;38.140;2022-09-09T02:30:00;14.30;80.00
62853;DHT22;49205;44.868;38.140;2022-09-09T02:32:32;14.30;80.30
62853;DHT22;49205;44.868;38.140;2022-09-09T02:35:10;14.20;79.50
62853;DHT22;49205;44.868;38.140;2022-09-09T02:37:39;14.00;78.90
62853;DHT22;49205;44.868;38.140;2022-09-09T02:40:11;13.90;79.80
62853;DHT22;49205;44.868;38.140;2022-09-09T02:42:47;13.80;80.60
62853;DHT22;49205;44.868;38.140;2022-09-09T02:45:19;13.80;81.10
62853;DHT22;49205;44.868;38.140;2022-09-09T02:50:35;13.90;81.50
62853;DHT22;49205;44.868;38.140;2022-09-09T02:58:25;14.10;81.20
62853;DHT22;49205;44.868;38.140;2022-09-09T03:00:56;14.10;81.20
62853;DHT22;49205;44.868;38.140;2022-09-09T03:03:25;14.10;81.10
62853;DHT22;49205;44.868;38.140;2022-09-09T03:05:54;14.10;81.20
62853;DHT22;49205;44.868;38.140;2022-09-09T03:08:24;14.20;81.30
62853;DHT22;49205;44.868;38.140;2022-09-09T03:10:57;14.10;80.90
62853;DHT22;49205;44.868;38.140;2022-09-09T03:13:26;14.00;80.40
62853;DHT22;49205;44.868;38.140;2022-09-09T03:15:55;13.90;80.90
62853;DHT22;49205;44.868;38.140;2022-09-09T03:18:25;13.80;81.20
62853;DHT22;49205;44.868;38.140;2022-09-09T03:20:56;13.80;80.80
62853;DHT22;49205;44.868;38.140;2022-09-09T03:23:25;13.80;81.00
62853;DHT22;49205;44.868;38.140;2022-09-09T03:25:54;13.70;81.40
62853;DHT22;49205;44.868;38.140;2022-09-09T03:28:26;13.80;81.70
62853;DHT22;49205;44.868;38.140;2022-09-09T03:31:03;13.80;81.90
62853;DHT22;49205;44.868;38.140;2022-09-09T03:33:30;13.90;82.00
62853;DHT22;49205;44.868;38.140;2022-09-09T03:35:58;13.90;81.80
62853;DHT22;49205;44.868;38.140;2022-09-09T03:38:27;14.00;81.10
62853;DHT22;49205;44.868;38.140;2022-09-09T03:40:57;14.00;80.80
62853;DHT22;49205;44.868;38.140;2022-09-09T03:43:27;14.00;80.80
62853;DHT22;49205;44.868;38.140;2022-09-09T03:45:58;13.90;81.00
62853;DHT22;49205;44.868;38.140;2022-09-09T03:48:27;13.90;80.30
62853;DHT22;49205;44.868;38.140;2022-09-09T03:50:56;14.00;80.30
62853;DHT22;49205;44.868;38.140;2022-09-09T03:53:28;14.00;80.70
62853;DHT22;49205;44.868;38.140;2022-09-09T03:55:57;14.10;80.30
62853;DHT22;49205;44.868;38.140;2022-09-09T03:58:27;14.10;80.10
62853;DHT22;49205;44.868;38.140;2022-09-09T04:01:00;14.10;79.90
62853;DHT22;49205;44.868;38.140;2022-09-09T04:03:30;14.20;80.10
62853;DHT22;49205;44.868;38.140;2022-09-09T04:06:00;14.20;80.10
62853;DHT22;49205;44.868;38.140;2022-09-09T04:08:31;14.30;80.20
62853;DHT22;49205;44.868;38.140;2022-09-09T04:11:01;14.40;80.30
62853;DHT22;49205;44.868;38.140;2022-09-09T04:13:33;14.50;80.30
62853;DHT22;49205;44.868;38.140;2022-09-09T04:16:03;14.60;80.30
62853;DHT22;49205;44.868;38.140;2022-09-09T04:18:33;14.70;80.10
62853;DHT22;49205;44.868;38.140;2022-09-09T04:21:03;14.70;79.50
62853;DHT22;49205;44.868;38.140;2022-09-09T04:23:34;14.80;80.00
62853;DHT22;49205;44.868;38.140;2022-09-09T04:26:04;14.80;80.10
62853;DHT22;49205;44.868;38.140;2022-09-09T04:28:35;14.90;79.30
62853;DHT22;49205;44.868;38.140;2022-09-09T04:31:18;14.90;78.80
62853;DHT22;49205;44.868;38.140;2022-09-09T04:33:44;14.90;78.20
62853;DHT22;49205;44.868;38.140;2022-09-09T04:36:14;14.90;78.60
62853;DHT22;49205;44.868;38.140;2022-09-09T04:38:43;15.00;78.00
62853;DHT22;49205;44.868;38.140;2022-09-09T04:41:12;15.10;78.10
62853;DHT22;49205;44.868;38.140;2022-09-09T04:43:43;15.10;78.00
62853;DHT22;49205;44.868;38.140;2022-09-09T04:46:12;15.20;78.00
62853;DHT22;49205;44.868;38.140;2022-09-09T04:48:41;15.40;77.80
62853;DHT22;49205;44.868;38.140;2022-09-09T04:51:13;15.40;78.00
62853;DHT22;49205;44.868;38.140;2022-09-09T04:53:42;15.60;78.00
62853;DHT22;49205;44.868;38.140;2022-09-09T04:56:14;15.70;78.10
62853;DHT22;49205;44.868;38.140;2022-09-09T04:58:48;15.80;77.80
62853;DHT22;49205;44.868;38.140;2022-09-09T05:01:19;15.90;77.30
62853;DHT22;49205;44.868;38.140;2022-09-09T05:03:50;16.10;77.70
62853;DHT22;49205;44.868;38.140;2022-09-09T05:06:22;16.20;77.70
62853;DHT22;49205;44.868;38.140;2022-09-09T05:08:53;16.40;77.10
62853;DHT22;49205;44.868;38.140;2022-09-09T05:11:28;16.40;76.20
62853;DHT22;49205;44.868;38.140;2022-09-09T05:14:02;16.50;76.20
62853;DHT22;49205;44.868;38.140;2022-09-09T05:16:32;16.60;76.10
62853;DHT22;49205;44.868;38.140;2022-09-09T05:19:01;16.80;75.80
62853;DHT22;49205;44.868;38.140;2022-09-09T05:21:32;16.90;75.30
62853;DHT22;49205;44.868;38.140;2022-09-09T05:24:01;17.00;75.10
62853;DHT22;49205;44.868;38.140;2022-09-09T05:26:31;17.00;74.60
62853;DHT22;49205;44.868;38.140;2022-09-09T05:29:00;17.10;74.20
62853;DHT22;49205;44.868;38.140;2022-09-09T05:31:30;17.20;74.50
62853;DHT22;49205;44.868;38.140;2022-09-09T05:34:02;17.30;74.00
62853;DHT22;49205;44.868;38.140;2022-09-09T05:36:31;17.40;73.20
62853;DHT22;49205;44.868;38.140;2022-09-09T05:39:00;17.50;73.30
62853;DHT22;49205;44.868;38.140;2022-09-09T05:41:29;17.60;72.40
62853;DHT22;49205;44.868;38.140;2022-09-09T05:44:00;17.70;71.30
62853;DHT22;49205;44.868;38.140;2022-09-09T05:46:31;17.70;71.50
62853;DHT22;49205;44.868;38.140;2022-09-09T05:49:01;17.80;71.60
62853;DHT22;49205;44.868;38.140;2022-09-09T05:51:31;17.90;70.20
62853;DHT22;49205;44.868;38.140;2022-09-09T05:54:01;17.90;69.60
62853;DHT22;49205;44.868;38.140;2022-09-09T05:56:32;18.00;69.10
62853;DHT22;49205;44.868;38.140;2022-09-09T05:59:01;18.10;68.20
62853;DHT22;49205;44.868;38.140;2022-09-09T06:01:32;18.10;66.90
62853;DHT22;49205;44.868;38.140;2022-09-09T06:04:02;18.20;67.90
62853;DHT22;49205;44.868;38.140;2022-09-09T06:06:34;18.20;67.20
62853;DHT22;49205;44.868;38.140;2022-09-09T06:09:06;18.30;67.10
62853;DHT22;49205;44.868;38.140;2022-09-09T06:11:39;18.40;66.40
62853;DHT22;49205;44.868;38.140;2022-09-09T06:14:09;18.50;65.40
62853;DHT22;49205;44.868;38.140;2022-09-09T06:16:39;18.60;65.10
62853;DHT22;49205;44.868;38.140;2022-09-09T06:19:11;18.70;65.00
62853;DHT22;49205;44.868;38.140;2022-09-09T06:21:40;18.70;65.20
62853;DHT22;49205;44.868;38.140;2022-09-09T06:24:10;18.80;64.90
62853;DHT22;49205;44.868;38.140;2022-09-09T06:26:41;18.90;64.20
62853;DHT22;49205;44.868;38.140;2022-09-09T06:29:11;19.00;63.00
62853;DHT22;49205;44.868;38.140;2022-09-09T06:31:41;19.10;62.60
62853;DHT22;49205;44.868;38.140;2022-09-09T06:34:23;19.10;61.70
62853;DHT22;49205;44.868;38.140;2022-09-09T06:36:54;19.10;61.80
62853;DHT22;49205;44.868;38.140;2022-09-09T06:39:24;19.20;61.40
62853;DHT22;49205;44.868;38.140;2022-09-09T06:41:53;19.30;61.20
62853;DHT22;49205;44.868;38.140;2022-09-09T06:44:42;19.30;59.50
62853;DHT22;49205;44.868;38.140;2022-09-09T06:47:12;19.30;59.20
62853;DHT22;49205;44.868;38.140;2022-09-09T06:49:41;19.40;59.30
62853;DHT22;49205;44.868;38.140;2022-09-09T06:52:11;19.40;59.70
62853;DHT22;49205;44.868;38.140;2022-09-09T06:54:41;19.40;59.00
62853;DHT22;49205;44.868;38.140;2022-09-09T06:57:10;19.50;60.00
62853;DHT22;49205;44.868;38.140;2022-09-09T06:59:39;19.60;60.10
62853;DHT22;49205;44.868;38.140;2022-09-09T07:02:10;19.60;59.60
62853;DHT22;49205;44.868;38.140;2022-09-09T07:04:39;19.70;58.10
62853;DHT22;49205;44.868;38.140;2022-09-09T07:07:08;19.80;57.50
62853;DHT22;49205;44.868;38.140;2022-09-09T07:09:39;19.80;57.40
62853;DHT22;49205;44.868;38.140;2022-09-09T07:12:09;19.90;57.40
62853;DHT22;49205;44.868;38.140;2022-09-09T07:14:39;20.00;57.70
62853;DHT22;49205;44.868;38.140;2022-09-09T07:17:08;20.00;57.60
62853;DHT22;49205;44.868;38.140;2022-09-09T07:19:38;20.10;57.70
62853;DHT22;49205;44.868;38.140;2022-09-09T07:22:07;20.10;57.20
62853;DHT22;49205;44.868;38.140;2022-09-09T07:24:37;20.20;56.70
62853;DHT22;49205;44.868;38.140;2022-09-09T07:27:07;20.30;57.10
62853;DHT22;49205;44.868;38.140;2022-09-09T07:29:36;20.40;56.70
62853;DHT22;49205;44.868;38.140;2022-09-09T07:32:05;20.40;56.50
62853;DHT22;49205;44.868;38.140;2022-09-09T07:34:36;20.50;55.60
62853;DHT22;49205;44.868;38.140;2022-09-09T07:37:06;20.50;56.10
62853;DHT22;49205;44.868;38.140;2022-09-09T07:39:36;20.50;54.30
62853;DHT22;49205;44.868;38.140;2022-09-09T07:42:05;20.50;54.50
62853;DHT22;49205;44.868;38.140;2022-09-09T07:44:36;20.60;54.20
62853;DHT22;49205;44.868;38.140;2022-09-09T07:47:08;20.60;54.20
62853;DHT22;49205;44.868;38.140;2022-09-09T07:49:39;20.70;54.60
62853;DHT22;49205;44.868;38.140;2022-09-09T07:52:08;20.80;52.80
62853;DHT22;49205;44.868;38.140;2022-09-09T07:54:39;20.80;52.30
62853;DHT22;49205;44.868;38.140;2022-09-09T07:57:10;20.90;52.20
62853;DHT22;49205;44.868;38.140;2022-09-09T07:59:40;20.90;51.00
62853;DHT22;49205;44.868;38.140;2022-09-09T08:02:09;21.00;51.10
62853;DHT22;49205;44.868;38.140;2022-09-09T08:04:39;21.00;50.40
62853;DHT22;49205;44.868;38.140;2022-09-09T08:07:08;21.00;50.70
62853;DHT22;49205;44.868;38.140;2022-09-09T08:09:39;21.10;50.50
62853;DHT22;49205;44.868;38.140;2022-09-09T08:12:09;21.10;50.90
62853;DHT22;49205;44.868;38.140;2022-09-09T08:14:40;21.20;49.00
62853;DHT22;49205;44.868;38.140;2022-09-09T08:17:09;21.20;48.10
62853;DHT22;49205;44.868;38.140;2022-09-09T08:19:38;21.20;48.10
62853;DHT22;49205;44.868;38.140;2022-09-09T08:22:08;21.20;48.30
62853;DHT22;49205;44.868;38.140;2022-09-09T08:24:38;21.30;48.50
62853;DHT22;49205;44.868;38.140;2022-09-09T08:27:08;21.30;49.30
62853;DHT22;49205;44.868;38.140;2022-09-09T08:29:38;21.40;47.60
62853;DHT22;49205;44.868;38.140;2022-09-09T08:32:07;21.40;48.90
62853;DHT22;49205;44.868;38.140;2022-09-09T08:34:36;21.50;50.50
62853;DHT22;49205;44.868;38.140;2022-09-09T08:37:07;21.60;50.80
62853;DHT22;49205;44.868;38.140;2022-09-09T08:39:37;21.60;49.60
62853;DHT22;49205;44.868;38.140;2022-09-09T08:45:20;21.80;47.90
62853;DHT22;49205;44.868;38.140;2022-09-09T08:50:37;21.80;45.80
62853;DHT22;49205;44.868;38.140;2022-09-09T08:53:20;21.90;46.60
62853;DHT22;49205;44.868;38.140;2022-09-09T08:56:06;21.90;44.20
62853;DHT22;49205;44.868;38.140;2022-09-09T08:58:40;21.90;45.60
62853;DHT22;49205;44.868;38.140;2022-09-09T09:01:34;22.00;45.20
62853;DHT22;49205;44.868;38.140;2022-09-09T09:04:21;22.00;46.60
62853;DHT22;49205;44.868;38.140;2022-09-09T09:12:23;22.20;47.40
62853;DHT22;49205;44.868;38.140;2022-09-09T09:17:25;22.30;43.00
62853;DHT22;49205;44.868;38.140;2022-09-09T09:19:55;22.30;42.80
62853;DHT22;49205;44.868;38.140;2022-09-09T09:22:39;22.30;43.80
62853;DHT22;49205;44.868;38.140;2022-09-09T09:25:17;22.40;43.30
62853;DHT22;49205;44.868;38.140;2022-09-09T09:28:03;22.40;43.60
62853;DHT22;49205;44.868;38.140;2022-09-09T09:30:42;22.40;43.40
62853;DHT22;49205;44.868;38.140;2022-09-09T09:36:12;22.50;43.40
62853;DHT22;49205;44.868;38.140;2022-09-09T09:38:58;22.50;42.40
62853;DHT22;49205;44.868;38.140;2022-09-09T09:41:37;22.50;41.60
62853;DHT22;49205;44.868;38.140;2022-09-09T09:44:24;22.50;42.40
62853;DHT22;49205;44.868;38.140;2022-09-09T09:47:05;22.50;43.20
62853;DHT22;49205;44.868;38.140;2022-09-09T09:49:35;22.60;44.10
62853;DHT22;49205;44.868;38.140;2022-09-09T09:52:06;22.70;43.00
62853;DHT22;49205;44.868;38.140;2022-09-09T09:54:41;22.70;43.90
62853;DHT22;49205;44.868;38.140;2022-09-09T09:57:12;22.80;44.10
62853;DHT22;49205;44.868;38.140;2022-09-09T09:59:43;22.90;44.60
62853;DHT22;49205;44.868;38.140;2022-09-09T10:02:23;22.90;44.00
62853;DHT22;49205;44.868;38.140;2022-09-09T10:05:06;22.90;44.40
62853;DHT22;49205;44.868;38.140;2022-09-09T10:07:36;23.00;44.00
62853;DHT22;49205;44.868;38.140;2022-09-09T10:10:18;23.00;43.40
62853;DHT22;49205;44.868;38.140;2022-09-09T10:12:53;23.00;43.60
62853;DHT22;49205;44.868;38.140;2022-09-09T10:15:37;23.10;43.30
62853;DHT22;49205;44.868;38.140;2022-09-09T10:21:02;23.10;42.80
62853;DHT22;49205;44.868;38.140;2022-09-09T10:26:38;23.20;43.00
62853;DHT22;49205;44.868;38.140;2022-09-09T10:29:30;23.20;43.30
62853;DHT22;49205;44.868;38.140;2022-09-09T10:32:31;23.30;43.10
62853;DHT22;49205;44.868;38.140;2022-09-09T10:35:24;23.30;41.90
62853;DHT22;49205;44.868;38.140;2022-09-09T10:38:18;23.40;41.30
62853;DHT22;49205;44.868;38.140;2022-09-09T10:43:49;23.40;41.90
62853;DHT22;49205;44.868;38.140;2022-09-09T10:51:47;23.60;41.70
62853;DHT22;49205;44.868;38.140;2022-09-09T10:54:31;23.60;41.60
62853;DHT22;49205;44.868;38.140;2022-09-09T10:57:24;23.60;41.70
62853;DHT22;49205;44.868;38.140;2022-09-09T10:59:40;23.70;41.80
62853;DHT22;49205;44.868;38.140;2022-09-09T11:02:22;23.80;41.90
62853;DHT22;49205;44.868;38.140;2022-09-09T11:05:53;23.80;41.10
62853;DHT22;49205;44.868;38.140;2022-09-09T11:07:55;23.80;40.70
62853;DHT22;49205;44.868;38.140;2022-09-09T11:10:52;23.80;40.80
62853;DHT22;49205;44.868;38.140;2022-09-09T11:16:05;23.80;40.40
62853;DHT22;49205;44.868;38.140;2022-09-09T11:18:37;23.80;40.60
62853;DHT22;49205;44.868;38.140;2022-09-09T11:21:15;23.80;40.60
62853;DHT22;49205;44.868;38.140;2022-09-09T11:23:45;23.80;40.40
62853;DHT22;49205;44.868;38.140;2022-09-09T11:26:13;23.90;40.40
62853;DHT22;49205;44.868;38.140;2022-09-09T11:29:13;23.90;39.60
62853;DHT22;49205;44.868;38.140;2022-09-09T11:34:39;24.00;39.70
62853;DHT22;49205;44.868;38.140;2022-09-09T11:37:23;24.00;38.80
62853;DHT22;49205;44.868;38.140;2022-09-09T11:40:00;24.00;38.40
62853;DHT22;49205;44.868;38.140;2022-09-09T11:42:25;24.00;38.70
62853;DHT22;49205;44.868;38.140;2022-09-09T11:44:54;24.00;39.00
62853;DHT22;49205;44.868;38.140;2022-09-09T11:47:29;24.00;38.60
62853;DHT22;49205;44.868;38.140;2022-09-09T11:52:49;24.00;39.00
62853;DHT22;49205;44.868;38.140;2022-09-09T11:55:31;24.10;39.00
62853;DHT22;49205;44.868;38.140;2022-09-09T12:00:47;24.20;39.00
62853;DHT22;49205;44.868;38.140;2022-09-09T12:03:38;24.20;39.40
62853;DHT22;49205;44.868;38.140;2022-09-09T12:08:53;24.10;40.00
62853;DHT22;49205;44.868;38.140;2022-09-09T12:11:27;24.20;39.80
62853;DHT22;49205;44.868;38.140;2022-09-09T12:14:01;24.10;39.90
62853;DHT22;49205;44.868;38.140;2022-09-09T12:16:35;24.10;40.40
62853;DHT22;49205;44.868;38.140;2022-09-09T12:21:44;24.20;39.80
62853;DHT22;49205;44.868;38.140;2022-09-09T12:24:16;24.20;39.80
62853;DHT22;49205;44.868;38.140;2022-09-09T12:29:37;24.20;39.70
62853;DHT22;49205;44.868;38.140;2022-09-09T12:32:17;24.20;39.50
62853;DHT22;49205;44.868;38.140;2022-09-09T12:34:58;24.20;38.90
62853;DHT22;49205;44.868;38.140;2022-09-09T12:37:38;24.20;39.30
62853;DHT22;49205;44.868;38.140;2022-09-09T12:40:25;24.10;39.90
62853;DHT22;49205;44.868;38.140;2022-09-09T12:42:54;24.20;39.90
62853;DHT22;49205;44.868;38.140;2022-09-09T12:45:25;24.20;39.80
62853;DHT22;49205;44.868;38.140;2022-09-09T12:47:57;24.30;40.20
62853;DHT22;49205;44.868;38.140;2022-09-09T12:50:36;24.30;40.30
62853;DHT22;49205;44.868;38.140;2022-09-09T12:53:08;24.30;40.60
62853;DHT22;49205;44.868;38.140;2022-09-09T12:55:39;24.30;39.90
62853;DHT22;49205;44.868;38.140;2022-09-09T12:58:11;24.30;40.00
62853;DHT22;49205;44.868;38.140;2022-09-09T13:00:48;24.30;39.90
62853;DHT22;49205;44.868;38.140;2022-09-09T13:03:19;24.30;39.60
62853;DHT22;49205;44.868;38.140;2022-09-09T13:05:56;24.30;39.60
62853;DHT22;49205;44.868;38.140;2022-09-09T13:08:24;24.30;39.60
62853;DHT22;49205;44.868;38.140;2022-09-09T13:13:50;24.30;39.90
62853;DHT22;49205;44.868;38.140;2022-09-09T13:16:22;24.30;40.10
62853;DHT22;49205;44.868;38.140;2022-09-09T13:18:51;24.30;39.80
62853;DHT22;49205;44.868;38.140;2022-09-09T13:21:32;24.30;39.40
62853;DHT22;49205;44.868;38.140;2022-09-09T13:24:03;24.30;39.70
62853;DHT22;49205;44.868;38.140;2022-09-09T13:26:32;24.30;40.00
62853;DHT22;49205;44.868;38.140;2022-09-09T13:29:18;24.30;40.00
62853;DHT22;49205;44.868;38.140;2022-09-09T13:31:48;24.30;40.20
62853;DHT22;49205;44.868;38.140;2022-09-09T13:34:31;24.30;40.20
62853;DHT22;49205;44.868;38.140;2022-09-09T13:37:03;24.30;40.00
62853;DHT22;49205;44.868;38.140;2022-09-09T13:39:37;24.30;40.10
62853;DHT22;49205;44.868;38.140;2022-09-09T13:42:19;24.20;40.50
62853;DHT22;49205;44.868;38.140;2022-09-09T13:44:40;24.30;40.60
62853;DHT22;49205;44.868;38.140;2022-09-09T13:49:44;24.30;40.20
62853;DHT22;49205;44.868;38.140;2022-09-09T13:52:15;24.30;40.00
62853;DHT22;49205;44.868;38.140;2022-09-09T13:54:50;24.20;40.00
62853;DHT22;49205;44.868;38.140;2022-09-09T13:57:25;24.20;39.90
62853;DHT22;49205;44.868;38.140;2022-09-09T13:59:55;24.10;39.70
62853;DHT22;49205;44.868;38.140;2022-09-09T14:02:24;24.10;39.90
62853;DHT22;49205;44.868;38.140;2022-09-09T14:04:53;24.00;40.30
62853;DHT22;49205;44.868;38.140;2022-09-09T14:07:23;24.00;40.50
62853;DHT22;49205;44.868;38.140;2022-09-09T14:09:53;24.00;40.40
62853;DHT22;49205;44.868;38.140;2022-09-09T14:12:22;24.00;40.30
62853;DHT22;49205;44.868;38.140;2022-09-09T14:14:51;24.00;40.80
62853;DHT22;49205;44.868;38.140;2022-09-09T14:17:21;24.00;40.80
62853;DHT22;49205;44.868;38.140;2022-09-09T14:19:50;24.00;40.70
62853;DHT22;49205;44.868;38.140;2022-09-09T14:22:20;24.00;40.60
62853;DHT22;49205;44.868;38.140;2022-09-09T14:24:49;23.90;40.30
62853;DHT22;49205;44.868;38.140;2022-09-09T14:27:18;23.90;40.30
62853;DHT22;49205;44.868;38.140;2022-09-09T14:29:48;23.80;40.40
62853;DHT22;49205;44.868;38.140;2022-09-09T14:32:17;23.80;40.70
62853;DHT22;49205;44.868;38.140;2022-09-09T14:34:46;23.80;40.40
62853;DHT22;49205;44.868;38.140;2022-09-09T14:37:17;23.70;40.60
62853;DHT22;49205;44.868;38.140;2022-09-09T14:39:46;23.70;41.10
62853;DHT22;49205;44.868;38.140;2022-09-09T14:42:18;23.70;41.00
62853;DHT22;49205;44.868;38.140;2022-09-09T14:44:47;23.70;41.20
62853;DHT22;49205;44.868;38.140;2022-09-09T14:47:16;23.70;41.20
62853;DHT22;49205;44.868;38.140;2022-09-09T14:49:46;23.60;41.30
62853;DHT22;49205;44.868;38.140;2022-09-09T14:52:17;23.60;41.30
62853;DHT22;49205;44.868;38.140;2022-09-09T14:54:46;23.60;41.40
62853;DHT22;49205;44.868;38.140;2022-09-09T14:57:15;23.50;41.60
62853;DHT22;49205;44.868;38.140;2022-09-09T14:59:44;23.50;41.80
62853;DHT22;49205;44.868;38.140;2022-09-09T15:02:14;23.50;41.90
62853;DHT22;49205;44.868;38.140;2022-09-09T15:04:43;23.40;42.00
62853;DHT22;49205;44.868;38.140;2022-09-09T15:07:14;23.40;42.10
62853;DHT22;49205;44.868;38.140;2022-09-09T15:09:43;23.40;42.30
62853;DHT22;49205;44.868;38.140;2022-09-09T15:12:12;23.30;42.60
62853;DHT22;49205;44.868;38.140;2022-09-09T15:14:42;23.30;42.70
62853;DHT22;49205;44.868;38.140;2022-09-09T15:17:12;23.20;42.80
62853;DHT22;49205;44.868;38.140;2022-09-09T15:19:41;23.20;43.20
62853;DHT22;49205;44.868;38.140;2022-09-09T15:22:10;23.10;43.40
62853;DHT22;49205;44.868;38.140;2022-09-09T15:24:39;23.00;43.60
62853;DHT22;49205;44.868;38.140;2022-09-09T15:27:09;23.00;44.00
62853;DHT22;49205;44.868;38.140;2022-09-09T15:29:38;22.90;44.10
62853;DHT22;49205;44.868;38.140;2022-09-09T15:32:07;22.80;44.30
62853;DHT22;49205;44.868;38.140;2022-09-09T15:34:37;22.80;44.80
62853;DHT22;49205;44.868;38.140;2022-09-09T15:37:06;22.70;45.10
62853;DHT22;49205;44.868;38.140;2022-09-09T15:39:39;22.60;45.90
62853;DHT22;49205;44.868;38.140;2022-09-09T15:42:08;22.60;46.30
62853;DHT22;49205;44.868;38.140;2022-09-09T15:44:42;22.50;46.40
62853;DHT22;49205;44.868;38.140;2022-09-09T15:47:12;22.50;46.90
62853;DHT22;49205;44.868;38.140;2022-09-09T15:49:41;22.50;47.60
62853;DHT22;49205;44.868;38.140;2022-09-09T15:52:11;22.40;48.00
62853;DHT22;49205;44.868;38.140;2022-09-09T15:54:40;22.30;48.20
62853;DHT22;49205;44.868;38.140;2022-09-09T15:57:29;22.30;48.50
62853;DHT22;49205;44.868;38.140;2022-09-09T15:59:59;22.30;49.10
62853;DHT22;49205;44.868;38.140;2022-09-09T16:02:28;22.20;49.50
62853;DHT22;49205;44.868;38.140;2022-09-09T16:04:58;22.20;49.30
62853;DHT22;49205;44.868;38.140;2022-09-09T16:07:29;22.10;49.80
62853;DHT22;49205;44.868;38.140;2022-09-09T16:09:58;22.10;50.00
62853;DHT22;49205;44.868;38.140;2022-09-09T16:12:28;22.00;50.20
62853;DHT22;49205;44.868;38.140;2022-09-09T16:14:57;21.90;50.60
62853;DHT22;49205;44.868;38.140;2022-09-09T16:17:27;21.90;51.10
62853;DHT22;49205;44.868;38.140;2022-09-09T16:19:57;21.80;51.40
62853;DHT22;49205;44.868;38.140;2022-09-09T16:22:26;21.70;51.50
62853;DHT22;49205;44.868;38.140;2022-09-09T16:24:55;21.70;52.00
62853;DHT22;49205;44.868;38.140;2022-09-09T16:27:25;21.60;52.30
62853;DHT22;49205;44.868;38.140;2022-09-09T16:29:54;21.50;52.90
62853;DHT22;49205;44.868;38.140;2022-09-09T16:32:24;21.50;53.30
62853;DHT22;49205;44.868;38.140;2022-09-09T16:34:53;21.40;53.40
62853;DHT22;49205;44.868;38.140;2022-09-09T16:37:22;21.40;53.60
62853;DHT22;49205;44.868;38.140;2022-09-09T16:39:51;21.40;54.00
62853;DHT22;49205;44.868;38.140;2022-09-09T16:42:22;21.40;54.40
62853;DHT22;49205;44.868;38.140;2022-09-09T16:44:51;21.30;54.80
62853;DHT22;49205;44.868;38.140;2022-09-09T16:47:21;21.30;54.70
62853;DHT22;49205;44.868;38.140;2022-09-09T16:49:50;21.30;54.60
62853;DHT22;49205;44.868;38.140;2022-09-09T16:52:19;21.20;54.70
62853;DHT22;49205;44.868;38.140;2022-09-09T16:54:49;21.10;55.60
62853;DHT22;49205;44.868;38.140;2022-09-09T16:57:18;21.10;56.20
62853;DHT22;49205;44.868;38.140;2022-09-09T16:59:47;21.10;56.30
62853;DHT22;49205;44.868;38.140;2022-09-09T17:02:17;21.10;56.50
62853;DHT22;49205;44.868;38.140;2022-09-09T17:04:46;21.00;56.70
62853;DHT22;49205;44.868;38.140;2022-09-09T17:07:15;21.00;57.20
62853;DHT22;49205;44.868;38.140;2022-09-09T17:09:46;21.00;57.60
62853;DHT22;49205;44.868;38.140;2022-09-09T17:12:16;21.00;57.60
62853;DHT22;49205;44.868;38.140;2022-09-09T17:14:45;20.90;57.90
62853;DHT22;49205;44.868;38.140;2022-09-09T17:17:15;20.90;58.20
62853;DHT22;49205;44.868;38.140;2022-09-09T17:19:45;20.80;58.40
62853;DHT22;49205;44.868;38.140;2022-09-09T17:22:14;20.80;58.50
62853;DHT22;49205;44.868;38.140;2022-09-09T17:24:44;20.80;58.50
62853;DHT22;49205;44.868;38.140;2022-09-09T17:27:13;20.80;58.10
62853;DHT22;49205;44.868;38.140;2022-09-09T17:29:43;20.70;58.30